Aérodrome :







RETROUVEZ-NOUS SUR...

 
LOGIN :

S'inscrire | Disclaimer

   EN    FR    IT 

 









Légende :    VFR   VFR Marginal   IFR   IFR Intensif   IFR Très Intensif
Visi : 
Plafond : 
>= 8 km
>= 3000ft
5 à 8 km
1000 à 3000 ft
1500m à 5 km
500 à 1000 ft
800 à 1500m
200 à 500 ft
< 800m
< 200 ft
Symboles :   Orages  Brouillard  Fortes neiges  Fortes précipitations  Vent > 20 kt






- Altitude de l'aérodrome : 160 ft
- Code IATA : YYR


CYYR - Goose Bay

DERNIER METAR :
  • 041623Z 14007KT 15SM FEW050 OVC080 00/M04 A2984 RMK SC2AC6 VIRGA SLP107

METARs EXPIRÉS :
  • 041600Z 15007KT 15SM -SHSN FEW040 BKN050 OVC060 M00/M04 A2984 RMK SC1SC6SC2 SLP109
  • 041546Z 16007KT 12SM -SHSN BKN047 OVC055 M00/M04 A2985 RMK SC6SC2 SLP110
  • 041500Z 17010KT 15SM FEW035 FEW060 BKN075 M01/M05 A2986 RMK SC1SC1AC7 SH DIST W SLP114
  • 041400Z 16014G19KT 15SM FEW035 FEW060 BKN080 M01/M05 A2986 RMK SC1SC1AC7 SLP115

TAF TAF CYYR
Valide du 04 à 12h jusqu'au 05 à 12h UTC


041130Z 0412/0512 16008KT P6SM FEW030 BKN040
TEMPO 0412/0414 SCT040
BECMG 0412/0414 21012G22KT
FM041600 21010G20KT P6SM BKN030
TEMPO 0416/0422 BKN020
BECMG 0416/0418 21018G28KT
FM042200 21008KT P6SM BKN030
TEMPO 0422/0512 BKN020 RMK NXT FCST BY 041800Z
FIR CZQX / Amérique du Nord



MET'MAP, la Météo Aéronautique d'un coup d'oeil ! - Copyright ORBIFLY Décembre 2007 - Disclaimer

ORBIFLY MET'MAP TEAM :

Programmation & Développement : Alexandra Zaïnal
Sur une idée originale de : Baudouin d'Aumeries
Assistance à la programmation : Marc-Olivier Méhu
Soutien technique & logistique : Manuel Goepfert

Contact : metmap@orbifly.com




SOURCES & CREDITS :

   NOAA